createdAt,value
2023-05-08T00:00:59.821Z,67.30
2023-05-08T00:03:26.523Z,67.20
2023-05-08T00:05:53.200Z,67.10
2023-05-08T00:08:19.683Z,67.20
2023-05-08T00:10:46.177Z,67.40
2023-05-08T00:13:12.742Z,67.30
2023-05-08T00:15:45.032Z,67.30
2023-05-08T00:18:11.511Z,67.40
2023-05-08T00:20:38.012Z,67.30
2023-05-08T00:23:04.468Z,67.50
2023-05-08T00:25:30.928Z,67.80
2023-05-08T00:27:57.405Z,67.70
2023-05-08T00:30:23.892Z,68.00
2023-05-08T00:32:50.400Z,68.00
2023-05-08T00:35:16.916Z,68.00
2023-05-08T00:37:43.414Z,67.80
2023-05-08T00:40:09.984Z,68.00
2023-05-08T00:42:36.564Z,68.30
2023-05-08T00:45:03.047Z,68.30
2023-05-08T00:47:29.510Z,68.20
2023-05-08T00:49:55.996Z,68.20
2023-05-08T00:52:22.462Z,68.20
2023-05-08T00:54:48.927Z,68.30
2023-05-08T00:57:15.392Z,68.10
2023-05-08T00:59:41.893Z,68.00
2023-05-08T01:02:08.394Z,67.80
2023-05-08T01:04:34.902Z,67.80
2023-05-08T01:07:01.420Z,67.80
2023-05-08T01:09:27.901Z,67.80
2023-05-08T01:11:54.395Z,67.80
2023-05-08T01:14:20.871Z,67.40
2023-05-08T01:16:47.356Z,67.40
2023-05-08T01:19:13.813Z,67.60
2023-05-08T01:21:40.304Z,67.50
2023-05-08T01:24:06.782Z,67.60
2023-05-08T01:26:33.253Z,67.60
2023-05-08T01:28:59.730Z,67.60
2023-05-08T01:31:26.221Z,67.50
2023-05-08T01:33:52.754Z,67.50
2023-05-08T01:36:19.256Z,67.50
2023-05-08T01:38:45.721Z,67.40
2023-05-08T01:41:12.217Z,67.50
2023-05-08T01:43:38.703Z,67.60
2023-05-08T01:46:05.187Z,67.50
2023-05-08T01:48:31.660Z,67.30
2023-05-08T01:50:58.142Z,67.30
2023-05-08T01:53:24.632Z,67.20
2023-05-08T01:55:51.125Z,67.00
2023-05-08T01:58:17.637Z,67.10
2023-05-08T02:00:44.196Z,67.10
2023-05-08T02:03:10.741Z,67.20
2023-05-08T02:05:37.238Z,67.00
2023-05-08T02:08:03.754Z,67.10
2023-05-08T02:10:30.226Z,67.10
2023-05-08T02:12:56.731Z,67.00
2023-05-08T02:15:23.227Z,67.00
2023-05-08T02:17:49.760Z,67.00
2023-05-08T02:20:16.288Z,67.20
2023-05-08T02:22:42.778Z,67.00
2023-05-08T02:25:09.243Z,67.00
2023-05-08T02:27:35.708Z,67.00
2023-05-08T02:30:02.176Z,67.10
2023-05-08T02:32:28.720Z,67.00
2023-05-08T02:35:03.108Z,67.00
2023-05-08T02:37:30.314Z,66.90
2023-05-08T02:39:56.808Z,67.00
2023-05-08T02:42:23.277Z,67.00
2023-05-08T02:44:49.750Z,67.00
2023-05-08T02:47:17.328Z,67.00
2023-05-08T02:49:43.814Z,67.00
2023-05-08T02:52:10.293Z,67.00
2023-05-08T02:54:36.756Z,67.10
2023-05-08T02:57:03.224Z,66.90
2023-05-08T02:59:29.728Z,66.90
2023-05-08T03:01:56.321Z,66.90
2023-05-08T03:04:22.870Z,66.90
2023-05-08T03:06:49.341Z,67.10
2023-05-08T03:09:15.846Z,67.00
2023-05-08T03:11:42.382Z,67.00
2023-05-08T03:14:08.909Z,67.00
2023-05-08T03:16:35.372Z,67.10
2023-05-08T03:19:01.845Z,67.10
2023-05-08T03:21:28.311Z,67.00
2023-05-08T03:23:54.796Z,67.10
2023-05-08T03:26:21.292Z,67.10
2023-05-08T03:28:47.768Z,67.00
2023-05-08T03:31:14.286Z,67.10
2023-05-08T03:33:40.782Z,67.10
2023-05-08T03:36:07.247Z,67.10
2023-05-08T03:38:33.737Z,67.10
2023-05-08T03:41:00.200Z,67.10
2023-05-08T03:43:26.667Z,67.10
2023-05-08T03:45:53.127Z,67.10
2023-05-08T03:48:19.598Z,67.00
2023-05-08T03:50:46.079Z,67.00
2023-05-08T03:53:12.564Z,67.00
2023-05-08T03:55:39.073Z,67.00
2023-05-08T03:58:05.546Z,66.90
2023-05-08T04:00:32.113Z,67.00
2023-05-08T04:02:58.666Z,67.10
2023-05-08T04:05:25.249Z,67.00
2023-05-08T04:07:51.716Z,67.10
2023-05-08T04:10:18.234Z,67.00
2023-05-08T04:12:44.748Z,66.90
2023-05-08T04:15:11.311Z,66.90
2023-05-08T04:17:37.949Z,67.00
2023-05-08T04:20:04.469Z,66.90
2023-05-08T04:22:30.956Z,67.00
2023-05-08T04:24:57.452Z,67.00
2023-05-08T04:27:23.910Z,67.00
2023-05-08T04:29:50.411Z,66.90
2023-05-08T04:32:17.072Z,66.90
2023-05-08T04:34:43.779Z,66.90
2023-05-08T04:37:10.240Z,66.90
2023-05-08T04:39:36.722Z,67.00
2023-05-08T04:42:03.207Z,66.90
2023-05-08T04:44:29.693Z,67.00
2023-05-08T04:46:56.197Z,66.90
2023-05-08T04:49:22.670Z,66.90
2023-05-08T04:51:49.169Z,66.80
2023-05-08T04:54:15.652Z,66.90
2023-05-08T04:56:42.148Z,66.90
2023-05-08T04:59:08.621Z,66.80
2023-05-08T05:01:35.140Z,66.70
2023-05-08T05:04:01.693Z,66.70
2023-05-08T05:06:28.197Z,66.70
2023-05-08T05:08:54.684Z,66.70
2023-05-08T05:11:21.241Z,66.70
2023-05-08T05:13:47.734Z,66.70
2023-05-08T05:16:14.262Z,66.60
2023-05-08T05:18:40.750Z,66.60
2023-05-08T05:21:07.226Z,66.60
2023-05-08T05:23:33.698Z,66.70
2023-05-08T05:26:00.160Z,66.70
2023-05-08T05:28:26.626Z,66.50
2023-05-08T05:30:53.144Z,66.30
2023-05-08T05:33:19.646Z,66.30
2023-05-08T05:35:46.128Z,66.30
2023-05-08T05:38:12.634Z,66.40
2023-05-08T05:40:39.112Z,66.40
2023-05-08T05:43:05.614Z,66.20
2023-05-08T05:45:33.465Z,66.20
2023-05-08T05:48:00.405Z,66.20
2023-05-08T05:50:26.925Z,66.30
2023-05-08T05:52:53.397Z,66.30
2023-05-08T05:55:19.861Z,66.20
2023-05-08T05:57:46.333Z,66.20
2023-05-08T06:00:15.308Z,66.20
2023-05-08T06:02:41.922Z,67.00
2023-05-08T06:05:08.551Z,66.20
2023-05-08T06:07:35.155Z,66.10
2023-05-08T06:10:01.613Z,66.20
2023-05-08T06:12:28.312Z,66.20
2023-05-08T06:14:54.841Z,66.20
2023-05-08T06:17:21.335Z,66.20
2023-05-08T06:19:47.836Z,66.10
2023-05-08T06:22:14.314Z,66.10
2023-05-08T06:24:40.810Z,66.20
2023-05-08T06:27:07.283Z,66.20
2023-05-08T06:29:33.764Z,66.20
2023-05-08T06:32:00.243Z,66.20
2023-05-08T06:34:26.745Z,66.10
2023-05-08T06:36:53.210Z,66.20
2023-05-08T06:39:19.695Z,66.10
2023-05-08T06:41:46.191Z,66.20
2023-05-08T06:44:12.705Z,66.10
2023-05-08T06:46:39.192Z,66.10
2023-05-08T06:49:05.676Z,66.10
2023-05-08T06:51:32.160Z,66.10
2023-05-08T06:53:58.653Z,66.10
2023-05-08T06:56:25.136Z,66.20
2023-05-08T06:59:01.032Z,66.00
2023-05-08T07:01:34.637Z,66.10
2023-05-08T07:04:01.184Z,66.10
2023-05-08T07:06:27.692Z,66.20
2023-05-08T07:08:54.165Z,66.20
2023-05-08T07:11:20.679Z,66.00
2023-05-08T07:13:47.163Z,66.10
2023-05-08T07:16:13.676Z,66.10
2023-05-08T07:18:40.154Z,66.00
2023-05-08T07:21:06.640Z,66.00
2023-05-08T07:23:33.103Z,66.00
2023-05-08T07:25:59.591Z,66.20
2023-05-08T07:28:26.090Z,66.20
2023-05-08T07:30:52.592Z,66.20
2023-05-08T07:33:19.092Z,66.30
2023-05-08T07:35:45.578Z,66.30
2023-05-08T07:38:12.053Z,66.60
2023-05-08T07:40:38.584Z,66.30
2023-05-08T07:43:05.076Z,66.50
2023-05-08T07:45:31.561Z,66.40
2023-05-08T07:47:58.072Z,66.30
2023-05-08T07:50:24.694Z,66.50
2023-05-08T07:52:51.167Z,66.50
2023-05-08T07:55:17.665Z,66.60
2023-05-08T07:57:44.138Z,66.30
2023-05-08T08:00:10.615Z,66.20
2023-05-08T08:02:37.262Z,66.60
2023-05-08T08:05:03.850Z,66.10
2023-05-08T08:07:30.341Z,66.50
2023-05-08T08:09:56.814Z,66.20
2023-05-08T08:12:23.302Z,66.40
2023-05-08T08:14:49.756Z,66.30
2023-05-08T08:17:16.325Z,66.40
2023-05-08T08:19:42.859Z,66.10
2023-05-08T08:22:09.337Z,66.60
2023-05-08T08:24:35.789Z,65.80
2023-05-08T08:27:02.295Z,66.40
2023-05-08T08:29:28.752Z,66.10
2023-05-08T08:31:55.233Z,67.00
2023-05-08T08:34:21.707Z,66.30
2023-05-08T08:36:48.194Z,66.40
2023-05-08T08:39:15.403Z,66.60
2023-05-08T08:41:41.980Z,65.80
2023-05-08T08:44:09.433Z,66.20
2023-05-08T08:46:35.941Z,66.10
2023-05-08T08:49:02.429Z,66.10
2023-05-08T08:51:28.938Z,66.30
2023-05-08T08:53:55.446Z,65.70
2023-05-08T08:56:21.927Z,66.40
2023-05-08T08:58:51.503Z,66.30
2023-05-08T09:01:17.998Z,66.20
2023-05-08T09:03:45.355Z,66.70
2023-05-08T09:06:13.245Z,66.20
2023-05-08T09:08:39.737Z,66.70
2023-05-08T09:11:06.225Z,66.30
2023-05-08T09:13:32.750Z,66.70
2023-05-08T09:15:59.304Z,66.80
2023-05-08T09:18:25.799Z,66.80
2023-05-08T09:20:52.290Z,66.70
2023-05-08T09:23:18.761Z,66.50
2023-05-08T09:25:45.418Z,66.50
2023-05-08T09:28:11.916Z,66.50
2023-05-08T09:30:38.375Z,66.60
2023-05-08T09:33:04.968Z,66.10
2023-05-08T09:35:31.466Z,66.20
2023-05-08T09:37:57.988Z,66.30
2023-05-08T09:40:24.465Z,66.50
2023-05-08T09:42:51.054Z,66.20
2023-05-08T09:45:17.662Z,66.80
2023-05-08T09:47:45.582Z,66.60
2023-05-08T09:50:12.478Z,66.50
2023-05-08T09:52:39.168Z,66.40
2023-05-08T09:55:05.665Z,66.60
2023-05-08T09:57:32.169Z,66.50
2023-05-08T09:59:58.666Z,66.70
2023-05-08T10:02:25.195Z,66.90
2023-05-08T10:04:51.710Z,66.50
2023-05-08T10:07:18.238Z,66.70
2023-05-08T10:09:50.607Z,66.00
2023-05-08T10:12:17.443Z,66.50
2023-05-08T10:14:46.501Z,66.70
2023-05-08T10:17:13.601Z,66.20
2023-05-08T10:19:40.117Z,66.50
2023-05-08T10:22:06.592Z,66.30
2023-05-08T10:24:33.079Z,66.50
2023-05-08T10:27:06.752Z,66.80
2023-05-08T10:29:34.168Z,66.80
2023-05-08T10:32:00.666Z,66.70
2023-05-08T10:34:27.126Z,66.30
2023-05-08T10:36:54.151Z,66.60
2023-05-08T10:39:20.799Z,66.50
2023-05-08T10:41:47.316Z,66.30
2023-05-08T10:44:13.791Z,66.40
2023-05-08T10:46:40.352Z,66.20
2023-05-08T10:49:06.955Z,66.60
2023-05-08T10:51:33.441Z,66.90
2023-05-08T10:53:59.913Z,66.60
2023-05-08T10:56:26.388Z,66.60
2023-05-08T10:58:52.861Z,66.50
2023-05-08T11:01:19.496Z,66.50
2023-05-08T11:03:46.267Z,66.70
2023-05-08T11:06:12.932Z,66.50
2023-05-08T11:08:39.423Z,66.70
2023-05-08T11:11:05.915Z,66.50
2023-05-08T11:13:32.426Z,66.50
2023-05-08T11:15:58.937Z,66.50
2023-05-08T11:18:28.071Z,66.70
2023-05-08T11:20:59.231Z,66.60
2023-05-08T11:23:25.732Z,67.60
2023-05-08T11:25:52.214Z,66.40
2023-05-08T11:28:18.709Z,67.50
2023-05-08T11:30:45.200Z,66.90
2023-05-08T11:33:11.685Z,67.40
2023-05-08T11:35:38.149Z,66.80
2023-05-08T11:38:04.597Z,67.40
2023-05-08T11:40:31.082Z,66.50
2023-05-08T11:42:57.589Z,66.90
2023-05-08T11:45:24.088Z,66.70
2023-05-08T11:47:50.618Z,66.90
2023-05-08T11:50:17.229Z,66.70
2023-05-08T11:52:43.925Z,66.90
2023-05-08T11:55:10.428Z,66.40
2023-05-08T11:57:36.928Z,66.90
2023-05-08T12:00:03.413Z,66.80
2023-05-08T12:02:31.300Z,67.60
2023-05-08T12:04:59.147Z,66.90
2023-05-08T12:07:25.669Z,66.80
2023-05-08T12:09:52.160Z,67.30
2023-05-08T12:12:18.643Z,66.70
2023-05-08T12:14:45.117Z,67.00
2023-05-08T12:17:11.789Z,67.20
2023-05-08T12:19:38.428Z,66.80
2023-05-08T12:22:04.914Z,66.90
2023-05-08T12:24:31.400Z,67.00
2023-05-08T12:26:57.873Z,67.10
2023-05-08T12:29:27.659Z,67.30
2023-05-08T12:31:54.163Z,67.30
2023-05-08T12:34:20.653Z,67.30
2023-05-08T12:36:47.149Z,67.30
2023-05-08T12:39:13.699Z,67.00
2023-05-08T12:41:40.222Z,67.10
2023-05-08T12:44:06.694Z,66.80
2023-05-08T12:46:33.250Z,67.40
2023-05-08T12:48:59.764Z,67.60
2023-05-08T12:51:26.234Z,67.00
2023-05-08T12:53:52.800Z,67.30
2023-05-08T12:56:19.282Z,67.80
2023-05-08T12:58:45.765Z,67.50
2023-05-08T13:01:12.246Z,67.60
2023-05-08T13:03:38.900Z,67.60
2023-05-08T13:06:05.587Z,68.00
2023-05-08T13:08:32.077Z,67.90
2023-05-08T13:10:58.575Z,68.00
2023-05-08T13:13:25.195Z,67.50
2023-05-08T13:15:51.748Z,67.40
2023-05-08T13:18:18.246Z,67.70
2023-05-08T13:20:44.713Z,67.80
2023-05-08T13:23:11.197Z,67.70
2023-05-08T13:25:37.711Z,68.20
2023-05-08T13:28:04.194Z,67.90
2023-05-08T13:30:30.716Z,68.00
2023-05-08T13:32:57.323Z,68.20
2023-05-08T13:35:23.895Z,67.60
2023-05-08T13:37:50.363Z,67.90
2023-05-08T13:40:16.840Z,68.20
2023-05-08T13:42:43.313Z,68.00
2023-05-08T13:45:09.797Z,68.30
2023-05-08T13:47:36.386Z,68.20
2023-05-08T13:50:02.906Z,69.00
2023-05-08T13:52:29.380Z,68.30
2023-05-08T13:54:55.869Z,68.10
2023-05-08T13:57:22.348Z,67.80
2023-05-08T13:59:48.815Z,68.30
2023-05-08T14:02:15.375Z,68.00
2023-05-08T14:04:41.953Z,68.20
2023-05-08T14:07:08.434Z,68.10
2023-05-08T14:09:34.906Z,68.20
2023-05-08T14:12:01.397Z,68.00
2023-05-08T14:14:27.859Z,68.50
2023-05-08T14:16:54.318Z,68.50
2023-05-08T14:19:20.800Z,68.70
2023-05-08T14:21:47.283Z,68.60
2023-05-08T14:24:13.756Z,68.30
2023-05-08T14:26:40.228Z,68.20
2023-05-08T14:29:06.706Z,68.50
2023-05-08T14:31:33.268Z,68.70
2023-05-08T14:33:59.765Z,68.60
2023-05-08T14:36:26.242Z,68.60
2023-05-08T14:38:52.726Z,68.70
2023-05-08T14:41:19.186Z,69.30
2023-05-08T14:43:45.685Z,69.00
2023-05-08T14:46:12.198Z,68.80
2023-05-08T14:48:38.700Z,68.80
2023-05-08T14:51:05.175Z,68.70
2023-05-08T14:53:31.810Z,68.60
2023-05-08T14:55:58.819Z,68.70
2023-05-08T14:58:25.558Z,68.70
2023-05-08T15:00:52.043Z,68.80
2023-05-08T15:03:18.678Z,68.90
2023-05-08T15:05:45.269Z,68.80
2023-05-08T15:08:11.750Z,69.00
2023-05-08T15:10:38.250Z,69.40
2023-05-08T15:13:04.787Z,69.30
2023-05-08T15:15:31.278Z,68.70
2023-05-08T15:17:57.814Z,69.10
2023-05-08T15:20:24.330Z,69.50
2023-05-08T15:22:50.828Z,69.20
2023-05-08T15:25:17.433Z,69.10
2023-05-08T15:27:44.109Z,69.10
2023-05-08T15:30:10.605Z,69.20
2023-05-08T15:32:37.180Z,69.60
2023-05-08T15:35:03.651Z,69.50
2023-05-08T15:37:30.123Z,69.70
2023-05-08T15:39:56.593Z,69.80
2023-05-08T15:42:23.063Z,69.60
2023-05-08T15:47:18.884Z,69.80
2023-05-08T15:49:45.345Z,70.00
2023-05-08T15:52:11.850Z,69.90
2023-05-08T15:54:38.326Z,69.30
2023-05-08T15:57:04.842Z,69.80
2023-05-08T15:59:31.327Z,70.00
2023-05-08T16:01:57.802Z,69.80
2023-05-08T16:04:24.273Z,70.00
2023-05-08T16:06:50.746Z,70.10
2023-05-08T16:09:17.238Z,70.30
2023-05-08T16:11:43.718Z,70.20
2023-05-08T16:14:10.180Z,70.30
2023-05-08T16:16:36.697Z,70.50
2023-05-08T16:19:03.248Z,70.60
2023-05-08T16:21:29.724Z,70.10
2023-05-08T16:23:56.205Z,70.00
2023-05-08T16:26:22.808Z,70.20
2023-05-08T16:28:49.282Z,70.40
2023-05-08T16:31:15.800Z,69.90
2023-05-08T16:33:42.285Z,70.70
2023-05-08T16:36:15.971Z,71.00
2023-05-08T16:38:42.466Z,70.20
2023-05-08T16:41:09.005Z,70.60
2023-05-08T16:43:35.482Z,70.80
2023-05-08T16:46:02.029Z,70.80
2023-05-08T16:48:28.524Z,70.70
2023-05-08T16:50:54.968Z,71.00
2023-05-08T16:53:21.450Z,70.70
2023-05-08T16:55:47.918Z,70.50
2023-05-08T16:58:14.415Z,70.90
2023-05-08T17:00:40.900Z,70.70
2023-05-08T17:03:07.428Z,71.20
2023-05-08T17:05:33.974Z,71.20
2023-05-08T17:08:00.455Z,70.90
2023-05-08T17:10:26.956Z,71.00
2023-05-08T17:12:54.352Z,71.40
2023-05-08T17:15:20.891Z,71.30
2023-05-08T17:17:47.483Z,71.10
2023-05-08T17:20:14.190Z,71.30
2023-05-08T17:22:40.937Z,71.10
2023-05-08T17:25:07.422Z,71.60
2023-05-08T17:27:33.893Z,71.90
2023-05-08T17:30:00.376Z,71.80
2023-05-08T17:32:26.934Z,72.00
2023-05-08T17:34:53.457Z,71.80
2023-05-08T17:37:19.970Z,71.70
2023-05-08T17:39:46.489Z,71.50
2023-05-08T17:42:12.968Z,71.70
2023-05-08T17:44:39.438Z,71.60
2023-05-08T17:47:05.910Z,71.80
2023-05-08T17:49:32.406Z,71.90
2023-05-08T17:51:58.891Z,71.80
2023-05-08T17:54:25.366Z,71.90
2023-05-08T17:56:51.865Z,71.80
2023-05-08T17:59:18.342Z,71.50
2023-05-08T18:01:44.900Z,71.70
2023-05-08T18:04:11.411Z,71.80
2023-05-08T18:06:37.910Z,71.70
2023-05-08T18:09:10.173Z,71.80
2023-05-08T18:11:36.663Z,71.90
2023-05-08T18:14:03.138Z,72.70
2023-05-08T18:16:29.805Z,71.70
2023-05-08T18:18:56.409Z,72.10
2023-05-08T18:21:22.902Z,71.90
2023-05-08T18:23:49.326Z,72.00
2023-05-08T18:26:15.799Z,72.00
2023-05-08T18:28:42.288Z,71.90
2023-05-08T18:31:08.805Z,71.80
2023-05-08T18:33:35.305Z,72.70
2023-05-08T18:36:01.797Z,72.20
2023-05-08T18:38:28.288Z,72.10
2023-05-08T18:40:54.779Z,72.20
2023-05-08T18:43:21.997Z,72.20
2023-05-08T18:45:48.481Z,72.10
2023-05-08T18:48:14.969Z,72.00
2023-05-08T18:50:41.452Z,72.00
2023-05-08T18:53:07.974Z,72.10
2023-05-08T18:55:34.444Z,71.90
2023-05-08T18:58:00.924Z,72.00
2023-05-08T19:00:27.431Z,72.20
2023-05-08T19:02:54.073Z,71.90
2023-05-08T19:05:20.597Z,71.80
2023-05-08T19:07:47.088Z,72.00
2023-05-08T19:10:13.831Z,71.90
2023-05-08T19:12:40.621Z,72.10
2023-05-08T19:15:07.138Z,72.10
2023-05-08T19:17:33.667Z,71.90
2023-05-08T19:20:00.212Z,72.00
2023-05-08T19:22:26.713Z,72.20
2023-05-08T19:24:53.220Z,72.00
2023-05-08T19:27:19.689Z,71.90
2023-05-08T19:29:46.182Z,71.90
2023-05-08T19:32:12.674Z,72.20
2023-05-08T19:34:39.186Z,72.10
2023-05-08T19:37:05.702Z,72.00
2023-05-08T19:39:32.201Z,72.10
2023-05-08T19:41:58.685Z,72.00
2023-05-08T19:44:25.174Z,71.90
2023-05-08T19:46:51.664Z,72.00
2023-05-08T19:49:18.156Z,71.90
2023-05-08T19:51:44.640Z,72.00
2023-05-08T19:54:11.128Z,72.10
2023-05-08T19:56:37.604Z,72.00
2023-05-08T19:59:04.076Z,72.00
2023-05-08T20:01:30.704Z,72.00
2023-05-08T20:03:59.715Z,72.10
2023-05-08T20:06:27.129Z,72.10
2023-05-08T20:08:58.050Z,72.10
2023-05-08T20:11:24.528Z,72.10
2023-05-08T20:13:51.014Z,72.10
2023-05-08T20:16:17.622Z,72.00
2023-05-08T20:18:44.155Z,72.00
2023-05-08T20:21:10.659Z,71.90
2023-05-08T20:23:37.121Z,71.90
2023-05-08T20:26:03.615Z,72.10
2023-05-08T20:28:30.113Z,72.00
2023-05-08T20:30:56.629Z,72.40
2023-05-08T20:33:23.108Z,72.30
2023-05-08T20:35:49.600Z,72.60
2023-05-08T20:38:16.099Z,72.20
2023-05-08T20:40:42.607Z,72.50
2023-05-08T20:43:09.097Z,72.30
2023-05-08T20:45:35.591Z,72.40
2023-05-08T20:48:02.114Z,72.40
2023-05-08T20:50:28.615Z,72.00
2023-05-08T20:52:55.085Z,72.50
2023-05-08T20:55:21.568Z,72.30
2023-05-08T20:57:48.055Z,72.70
2023-05-08T21:00:14.750Z,72.70
2023-05-08T21:02:41.420Z,72.80
2023-05-08T21:05:07.980Z,73.00
2023-05-08T21:07:34.493Z,72.90
2023-05-08T21:10:00.971Z,72.80
2023-05-08T21:12:27.442Z,72.90
2023-05-08T21:14:53.916Z,72.90
2023-05-08T21:17:20.445Z,72.90
2023-05-08T21:19:46.928Z,72.80
2023-05-08T21:22:13.393Z,72.80
2023-05-08T21:24:39.870Z,72.80
2023-05-08T21:27:06.356Z,72.90
2023-05-08T21:29:32.823Z,72.30
2023-05-08T21:31:59.432Z,72.50
2023-05-08T21:34:26.078Z,72.40
2023-05-08T21:36:52.615Z,72.40
2023-05-08T21:39:19.117Z,72.30
2023-05-08T21:41:45.610Z,72.50
2023-05-08T21:44:16.143Z,72.20
2023-05-08T21:46:42.660Z,72.00
2023-05-08T21:49:09.217Z,71.60
2023-05-08T21:51:35.695Z,71.90
2023-05-08T21:54:02.185Z,71.90
2023-05-08T21:56:28.673Z,72.00
2023-05-08T21:58:55.152Z,72.30
2023-05-08T22:01:21.655Z,71.90
2023-05-08T22:03:48.354Z,72.10
2023-05-08T22:06:14.908Z,71.50
2023-05-08T22:08:41.380Z,71.50
2023-05-08T22:11:07.873Z,70.90
2023-05-08T22:13:34.341Z,70.00
2023-05-08T22:16:00.866Z,70.80
2023-05-08T22:18:27.377Z,70.30
2023-05-08T22:20:53.862Z,71.20
2023-05-08T22:23:20.343Z,70.70
2023-05-08T22:25:46.842Z,70.70
2023-05-08T22:28:13.329Z,71.00
2023-05-08T22:30:39.788Z,70.10
2023-05-08T22:33:06.301Z,69.90
2023-05-08T22:35:32.801Z,69.10
2023-05-08T22:37:59.276Z,69.30
2023-05-08T22:40:25.752Z,68.90
2023-05-08T22:42:52.220Z,68.60
2023-05-08T22:45:18.704Z,68.50
2023-05-08T22:47:45.219Z,68.70
2023-05-08T22:50:11.703Z,68.70
2023-05-08T22:52:38.176Z,68.70
2023-05-08T22:55:04.639Z,68.40
2023-05-08T22:57:31.145Z,68.40
2023-05-08T22:59:57.641Z,68.40
2023-05-08T23:02:28.251Z,68.30
2023-05-08T23:04:54.770Z,68.30
2023-05-08T23:07:21.267Z,68.10
2023-05-08T23:09:47.717Z,68.30
2023-05-08T23:12:14.182Z,68.10
2023-05-08T23:14:40.690Z,68.20
2023-05-08T23:17:07.222Z,68.10
2023-05-08T23:19:33.926Z,67.80
2023-05-08T23:22:00.402Z,67.90
2023-05-08T23:24:26.907Z,67.80
2023-05-08T23:26:53.399Z,67.60
2023-05-08T23:29:19.878Z,67.60
2023-05-08T23:31:46.361Z,67.60
2023-05-08T23:34:12.867Z,67.60
2023-05-08T23:36:39.335Z,67.60
2023-05-08T23:39:05.807Z,67.50
2023-05-08T23:41:32.281Z,67.40
2023-05-08T23:43:58.767Z,67.50
2023-05-08T23:46:28.222Z,67.60
2023-05-08T23:48:54.730Z,67.60
2023-05-08T23:51:21.214Z,67.60
2023-05-08T23:53:47.698Z,67.60
2023-05-08T23:56:14.184Z,67.60
2023-05-08T23:58:40.673Z,67.50
